createdAt,value
2022-09-25T00:01:16.018Z,7.10
2022-09-25T00:03:44.673Z,7.00
2022-09-25T00:06:18.678Z,7.10
2022-09-25T00:08:46.696Z,7.10
2022-09-25T00:11:27.669Z,7.10
2022-09-25T00:13:55.602Z,7.10
2022-09-25T00:16:26.673Z,7.10
2022-09-25T00:19:12.589Z,7.10
2022-09-25T00:21:41.504Z,7.30
2022-09-25T00:24:10.794Z,7.40
2022-09-25T00:26:41.193Z,7.20
2022-09-25T00:29:13.567Z,7.20
2022-09-25T00:31:41.072Z,7.20
2022-09-25T00:34:08.641Z,7.20
2022-09-25T00:36:36.276Z,7.10
2022-09-25T00:39:04.253Z,7.20
2022-09-25T00:41:32.258Z,7.20
2022-09-25T00:44:01.207Z,7.20
2022-09-25T00:46:42.844Z,7.20
2022-09-25T00:49:16.296Z,7.20
2022-09-25T00:51:54.622Z,7.20
2022-09-25T00:54:33.626Z,7.20
2022-09-25T00:57:05.544Z,7.20
2022-09-25T01:02:05.724Z,7.30
2022-09-25T01:04:38.218Z,7.30
2022-09-25T01:07:08.930Z,7.30
2022-09-25T01:09:37.140Z,7.30
2022-09-25T01:12:05.218Z,7.70
2022-09-25T01:17:26.739Z,7.30
2022-09-25T01:20:13.293Z,7.30
2022-09-25T01:22:56.116Z,7.20
2022-09-25T01:25:47.962Z,7.10
2022-09-25T01:28:53.003Z,7.30
2022-09-25T01:31:48.013Z,7.20
2022-09-25T01:34:49.975Z,7.40
2022-09-25T01:37:41.736Z,7.20
2022-09-25T01:40:33.647Z,7.20
2022-09-25T01:43:18.974Z,7.20
2022-09-25T01:46:12.340Z,7.20
2022-09-25T01:48:41.435Z,7.20
2022-09-25T01:51:16.635Z,7.20
2022-09-25T01:53:52.473Z,7.10
2022-09-25T01:56:34.485Z,7.20
2022-09-25T01:59:17.273Z,7.20
2022-09-25T02:01:47.284Z,7.20
2022-09-25T02:04:18.160Z,7.20
2022-09-25T02:06:49.745Z,7.20
2022-09-25T02:09:32.623Z,7.20
2022-09-25T02:12:07.083Z,7.20
2022-09-25T02:14:39.325Z,7.10
2022-09-25T02:17:12.714Z,7.20
2022-09-25T02:19:59.083Z,7.20
2022-09-25T02:22:34.637Z,7.20
2022-09-25T02:25:18.891Z,7.20
2022-09-25T02:27:47.544Z,7.20
2022-09-25T02:30:15.633Z,7.20
2022-09-25T02:32:44.378Z,7.20
2022-09-25T02:35:11.765Z,7.20
2022-09-25T02:37:39.391Z,7.20
2022-09-25T02:40:07.129Z,7.20
2022-09-25T02:45:23.393Z,7.20
2022-09-25T02:47:59.952Z,7.20
2022-09-25T02:50:27.264Z,7.20
2022-09-25T02:52:57.525Z,6.60
2022-09-25T02:55:49.343Z,7.20
2022-09-25T02:58:24.831Z,7.20
2022-09-25T03:00:55.035Z,7.20
2022-09-25T03:03:25.900Z,7.20
2022-09-25T03:05:57.211Z,7.20
2022-09-25T03:08:38.013Z,7.20
2022-09-25T03:11:12.534Z,7.20
2022-09-25T03:13:40.547Z,7.20
2022-09-25T03:16:45.498Z,7.10
2022-09-25T03:21:40.795Z,7.20
2022-09-25T03:24:08.297Z,7.10
2022-09-25T03:26:36.234Z,7.10
2022-09-25T03:29:04.764Z,7.10
2022-09-25T03:31:32.645Z,7.10
2022-09-25T03:34:00.337Z,7.10
2022-09-25T03:36:29.775Z,7.10
2022-09-25T03:39:01.667Z,7.10
2022-09-25T03:41:33.899Z,7.10
2022-09-25T03:44:02.109Z,7.10
2022-09-25T03:46:32.276Z,7.10
2022-09-25T03:49:00.220Z,7.10
2022-09-25T03:51:29.940Z,7.10
2022-09-25T03:53:57.788Z,7.10
2022-09-25T03:56:27.406Z,7.10
2022-09-25T03:58:55.205Z,7.10
2022-09-25T04:01:23.861Z,7.50
2022-09-25T04:03:51.673Z,7.10
2022-09-25T04:06:22.690Z,7.10
2022-09-25T04:08:50.551Z,7.10
2022-09-25T04:11:19.857Z,7.10
2022-09-25T04:13:47.562Z,7.10
2022-09-25T04:16:17.448Z,7.10
2022-09-25T04:18:45.566Z,7.10
2022-09-25T04:21:14.506Z,7.00
2022-09-25T04:23:42.540Z,7.00
2022-09-25T04:26:10.491Z,7.10
2022-09-25T04:33:48.248Z,7.10
2022-09-25T04:38:49.687Z,7.10
2022-09-25T04:41:19.878Z,7.10
2022-09-25T04:43:47.716Z,7.20
2022-09-25T04:46:21.495Z,7.30
2022-09-25T04:48:50.373Z,7.30
2022-09-25T04:51:17.995Z,7.30
2022-09-25T04:53:45.915Z,7.30
2022-09-25T04:56:15.869Z,7.30
2022-09-25T04:58:49.939Z,7.20
2022-09-25T05:01:19.411Z,7.40
2022-09-25T05:03:55.739Z,7.40
2022-09-25T05:06:23.314Z,7.50
2022-09-25T05:08:50.868Z,7.50
2022-09-25T05:11:18.981Z,7.50
2022-09-25T05:13:51.530Z,7.60
2022-09-25T05:16:19.806Z,7.60
2022-09-25T05:18:47.497Z,7.70
2022-09-25T05:21:15.234Z,7.70
2022-09-25T05:23:42.915Z,7.80
2022-09-25T05:26:11.244Z,7.90
2022-09-25T05:28:38.887Z,7.90
2022-09-25T05:31:07.318Z,7.90
2022-09-25T05:33:35.733Z,8.10
2022-09-25T05:36:07.671Z,8.00
2022-09-25T05:38:36.514Z,8.10
2022-09-25T05:41:05.524Z,8.10
2022-09-25T05:43:33.716Z,8.20
2022-09-25T05:46:01.580Z,8.20
2022-09-25T05:48:28.959Z,8.20
2022-09-25T05:50:57.641Z,8.20
2022-09-25T05:53:25.452Z,8.30
2022-09-25T05:56:03.764Z,8.00
2022-09-25T05:58:33.569Z,8.50
2022-09-25T06:01:03.379Z,8.40
2022-09-25T06:03:31.475Z,8.40
2022-09-25T06:06:01.105Z,8.50
2022-09-25T06:08:31.658Z,8.50
2022-09-25T06:11:03.500Z,8.50
2022-09-25T06:13:35.131Z,8.60
2022-09-25T06:16:02.888Z,8.40
2022-09-25T06:18:30.584Z,8.70
2022-09-25T06:21:02.825Z,8.80
2022-09-25T06:23:30.987Z,8.90
2022-09-25T06:26:07.055Z,9.00
2022-09-25T06:28:37.212Z,8.80
2022-09-25T06:31:05.609Z,9.10
2022-09-25T06:33:33.621Z,9.30
2022-09-25T06:36:01.309Z,9.10
2022-09-25T06:38:28.584Z,9.80
2022-09-25T06:40:59.886Z,9.60
2022-09-25T06:43:28.556Z,9.60
2022-09-25T06:45:59.259Z,9.60
2022-09-25T06:50:56.146Z,9.70
2022-09-25T06:53:25.487Z,9.90
2022-09-25T06:55:54.227Z,9.90
2022-09-25T06:58:26.904Z,9.90
2022-09-25T07:00:55.761Z,9.90
2022-09-25T07:03:42.047Z,10.00
2022-09-25T07:06:11.077Z,10.00
2022-09-25T07:08:38.846Z,9.20
2022-09-25T07:13:36.398Z,10.00
2022-09-25T07:16:06.922Z,10.10
2022-09-25T07:18:34.602Z,10.30
2022-09-25T07:21:04.512Z,10.50
2022-09-25T07:23:33.618Z,11.00
2022-09-25T07:26:15.584Z,10.90
2022-09-25T07:28:44.944Z,11.00
2022-09-25T07:31:15.525Z,11.10
2022-09-25T07:33:43.402Z,12.40
2022-09-25T07:36:12.159Z,11.40
2022-09-25T07:41:08.475Z,11.70
2022-09-25T07:43:37.905Z,11.70
2022-09-25T07:46:06.984Z,12.20
2022-09-25T07:48:34.507Z,12.00
2022-09-25T07:51:02.964Z,12.10
2022-09-25T07:53:30.779Z,12.10
2022-09-25T07:56:06.528Z,12.00
2022-09-25T07:58:37.901Z,12.20
2022-09-25T08:01:08.277Z,12.30
2022-09-25T08:03:35.808Z,12.30
2022-09-25T08:06:07.304Z,12.40
2022-09-25T08:08:35.937Z,12.50
2022-09-25T08:11:07.122Z,12.60
2022-09-25T08:13:35.581Z,12.70
2022-09-25T08:16:04.470Z,12.70
2022-09-25T08:21:03.872Z,13.30
2022-09-25T08:23:32.111Z,13.50
2022-09-25T08:25:59.849Z,13.60
2022-09-25T08:28:28.572Z,13.70
2022-09-25T08:30:58.382Z,13.80
2022-09-25T08:33:26.065Z,14.00
2022-09-25T08:36:02.114Z,14.20
2022-09-25T08:38:32.135Z,14.90
2022-09-25T08:41:06.052Z,15.70
2022-09-25T08:43:37.271Z,16.10
2022-09-25T08:46:38.497Z,16.40
2022-09-25T08:56:35.177Z,17.60
2022-09-25T08:59:34.661Z,17.60
2022-09-25T09:02:25.092Z,17.40
2022-09-25T09:04:56.171Z,17.30
2022-09-25T09:07:34.517Z,17.00
2022-09-25T09:10:24.121Z,17.00
2022-09-25T09:13:00.855Z,16.80
2022-09-25T09:15:45.202Z,16.50
2022-09-25T09:18:24.819Z,16.70
2022-09-25T09:20:57.409Z,16.70
2022-09-25T09:23:40.921Z,16.80
2022-09-25T09:31:32.264Z,17.70
2022-09-25T09:34:09.562Z,17.70
2022-09-25T09:37:04.199Z,17.30
2022-09-25T09:39:45.473Z,18.70
2022-09-25T09:42:28.071Z,18.70
2022-09-25T09:45:09.347Z,19.00
2022-09-25T09:48:12.808Z,20.70
2022-09-25T09:50:53.785Z,20.60
2022-09-25T09:53:34.423Z,19.40
2022-09-25T09:56:09.490Z,19.40
2022-09-25T09:58:45.428Z,18.60
2022-09-25T10:01:36.736Z,18.20
2022-09-25T10:04:10.822Z,18.20
2022-09-25T10:06:39.407Z,18.10
2022-09-25T10:09:08.439Z,17.70
2022-09-25T10:11:37.805Z,17.40
2022-09-25T10:14:05.547Z,17.60
2022-09-25T10:16:33.505Z,17.60
2022-09-25T10:19:22.704Z,18.20
2022-09-25T10:22:17.209Z,19.10
2022-09-25T10:27:49.040Z,21.80
2022-09-25T10:30:22.804Z,23.20
2022-09-25T10:33:13.602Z,23.20
2022-09-25T10:35:45.994Z,23.20
2022-09-25T10:38:27.397Z,22.90
2022-09-25T10:41:20.084Z,22.40
2022-09-25T10:44:02.079Z,21.50
2022-09-25T10:46:49.387Z,19.90
2022-09-25T10:49:40.335Z,19.30
2022-09-25T10:52:10.138Z,19.40
2022-09-25T10:54:43.719Z,19.40
2022-09-25T10:57:38.668Z,19.90
2022-09-25T11:00:21.496Z,20.30
2022-09-25T11:02:54.789Z,20.80
2022-09-25T11:05:35.858Z,21.00
2022-09-25T11:08:09.309Z,21.10
2022-09-25T11:10:47.539Z,21.00
2022-09-25T11:13:24.605Z,20.90
2022-09-25T11:15:56.785Z,21.60
2022-09-25T11:18:42.731Z,21.60
2022-09-25T11:21:30.197Z,22.70
2022-09-25T11:24:20.857Z,22.80
2022-09-25T11:27:07.450Z,23.20
2022-09-25T11:29:37.466Z,23.20
2022-09-25T11:32:29.258Z,23.00
2022-09-25T11:37:59.106Z,21.90
2022-09-25T11:43:17.067Z,19.90
2022-09-25T11:45:48.539Z,19.10
2022-09-25T11:48:39.367Z,18.90
2022-09-25T11:51:28.360Z,18.20
2022-09-25T11:57:03.679Z,17.50
2022-09-25T11:59:58.072Z,17.00
2022-09-25T12:02:41.259Z,16.80
2022-09-25T12:05:29.601Z,17.20
2022-09-25T12:10:59.779Z,15.60
2022-09-25T12:13:28.620Z,15.90
2022-09-25T12:18:47.225Z,15.10
2022-09-25T12:21:44.845Z,14.90
2022-09-25T12:24:19.745Z,14.60
2022-09-25T12:26:56.521Z,14.40
2022-09-25T12:29:46.947Z,14.10
2022-09-25T12:33:10.318Z,14.10
2022-09-25T12:35:55.991Z,14.00
2022-09-25T12:38:38.734Z,13.90
2022-09-25T12:43:49.701Z,14.10
2022-09-25T12:49:15.643Z,12.40
2022-09-25T12:51:53.164Z,14.50
2022-09-25T12:54:26.363Z,14.60
2022-09-25T12:57:10.283Z,14.50
2022-09-25T12:59:46.920Z,15.00
2022-09-25T13:02:30.904Z,14.60
2022-09-25T13:05:10.425Z,14.80
2022-09-25T13:07:59.777Z,15.00
2022-09-25T13:10:33.056Z,15.30
2022-09-25T13:13:08.135Z,15.30
2022-09-25T13:15:40.424Z,15.30
2022-09-25T13:18:25.438Z,15.30
2022-09-25T13:20:57.966Z,15.40
2022-09-25T13:23:38.507Z,15.50
2022-09-25T13:26:30.296Z,15.40
2022-09-25T13:29:21.332Z,15.80
2022-09-25T13:31:49.076Z,15.80
2022-09-25T13:34:19.283Z,16.00
2022-09-25T13:36:52.714Z,15.70
2022-09-25T13:39:52.813Z,15.40
2022-09-25T13:42:31.220Z,15.00
2022-09-25T13:45:16.915Z,14.60
2022-09-25T13:47:54.974Z,14.60
2022-09-25T13:50:34.881Z,14.50
2022-09-25T13:55:51.437Z,14.70
2022-09-25T13:58:27.135Z,14.80
2022-09-25T14:01:03.090Z,14.80
2022-09-25T14:03:52.090Z,14.70
2022-09-25T14:06:47.250Z,14.60
2022-09-25T14:09:21.296Z,14.60
2022-09-25T14:12:20.867Z,14.60
2022-09-25T14:14:55.554Z,14.50
2022-09-25T14:17:25.245Z,14.40
2022-09-25T14:19:56.603Z,14.40
2022-09-25T14:22:53.491Z,14.40
2022-09-25T14:25:33.364Z,14.20
2022-09-25T14:28:03.022Z,14.10
2022-09-25T14:30:33.008Z,14.00
2022-09-25T14:33:29.754Z,13.80
2022-09-25T14:39:01.078Z,13.70
2022-09-25T14:41:50.198Z,13.70
2022-09-25T14:46:58.538Z,13.50
2022-09-25T14:49:33.793Z,13.50
2022-09-25T14:52:05.294Z,13.50
2022-09-25T14:54:39.341Z,13.40
2022-09-25T14:57:08.649Z,13.40
2022-09-25T14:59:56.600Z,13.50
2022-09-25T15:02:45.645Z,13.50
2022-09-25T15:05:33.048Z,13.50
2022-09-25T15:08:02.394Z,13.50
2022-09-25T15:10:34.380Z,13.40
2022-09-25T15:13:13.545Z,11.50
2022-09-25T15:15:41.257Z,13.30
2022-09-25T15:18:14.385Z,13.30
2022-09-25T15:20:49.121Z,13.30
2022-09-25T15:23:19.200Z,13.40
2022-09-25T15:25:50.957Z,13.20
2022-09-25T15:28:22.001Z,13.10
2022-09-25T15:33:26.983Z,10.50
2022-09-25T15:35:56.406Z,12.90
2022-09-25T15:38:38.772Z,13.00
2022-09-25T15:41:14.682Z,13.00
2022-09-25T15:43:42.194Z,12.90
2022-09-25T15:46:10.321Z,12.80
2022-09-25T15:48:41.835Z,12.80
2022-09-25T15:51:20.750Z,12.60
2022-09-25T15:54:24.364Z,12.60
2022-09-25T15:56:55.502Z,12.50
2022-09-25T16:02:12.264Z,12.30
2022-09-25T16:04:49.691Z,12.20
2022-09-25T16:09:55.552Z,12.00
2022-09-25T16:12:49.272Z,11.90
2022-09-25T16:17:55.883Z,11.70
2022-09-25T16:22:59.917Z,11.60
2022-09-25T16:25:42.438Z,11.50
2022-09-25T16:28:22.733Z,11.40
2022-09-25T16:31:10.827Z,11.30
2022-09-25T16:39:16.155Z,11.10
2022-09-25T16:41:50.034Z,11.10
2022-09-25T16:47:01.515Z,11.00
2022-09-25T16:49:29.476Z,11.00
2022-09-25T16:51:57.324Z,11.00
2022-09-25T16:54:32.892Z,11.00
2022-09-25T16:57:02.513Z,10.90
2022-09-25T16:59:31.070Z,10.90
2022-09-25T17:02:08.795Z,10.80
2022-09-25T17:07:07.345Z,10.90
2022-09-25T17:09:34.939Z,10.90
2022-09-25T17:12:20.815Z,10.80
2022-09-25T17:14:49.580Z,10.80
2022-09-25T17:17:22.919Z,10.80
2022-09-25T17:19:51.274Z,10.70
2022-09-25T17:22:19.088Z,10.70
2022-09-25T17:24:46.901Z,10.70
2022-09-25T17:27:16.935Z,10.70
2022-09-25T17:29:48.172Z,10.50
2022-09-25T17:32:19.341Z,10.60
2022-09-25T17:34:47.279Z,10.60
2022-09-25T17:37:17.710Z,10.60
2022-09-25T17:39:45.556Z,10.60
2022-09-25T17:42:13.155Z,10.50
2022-09-25T17:44:43.851Z,10.50
2022-09-25T17:47:13.986Z,10.50
2022-09-25T17:49:42.084Z,10.50
2022-09-25T17:52:21.750Z,10.40
2022-09-25T17:54:49.444Z,10.20
2022-09-25T17:57:16.981Z,10.20
2022-09-25T18:02:17.032Z,10.00
2022-09-25T18:04:44.891Z,10.00
2022-09-25T18:07:13.339Z,10.00
2022-09-25T18:09:40.864Z,9.90
2022-09-25T18:12:09.517Z,9.90
2022-09-25T18:14:37.421Z,9.90
2022-09-25T18:17:04.915Z,9.90
2022-09-25T18:19:50.863Z,9.90
2022-09-25T18:22:21.619Z,9.90
2022-09-25T18:24:56.599Z,9.80
2022-09-25T18:27:30.743Z,9.80
2022-09-25T18:29:59.939Z,9.80
2022-09-25T18:32:27.567Z,9.80
2022-09-25T18:34:55.198Z,9.80
2022-09-25T18:37:22.520Z,9.80
2022-09-25T18:39:51.278Z,10.00
2022-09-25T18:42:18.880Z,8.70
2022-09-25T18:44:47.567Z,9.90
2022-09-25T18:47:15.357Z,9.90
2022-09-25T18:49:45.617Z,9.90
2022-09-25T18:52:12.983Z,9.90
2022-09-25T18:54:42.209Z,9.80
2022-09-25T18:57:12.057Z,10.00
2022-09-25T18:59:40.312Z,10.00
2022-09-25T19:02:39.347Z,10.00
2022-09-25T19:05:07.710Z,10.00
2022-09-25T19:07:37.785Z,10.00
2022-09-25T19:10:09.610Z,10.20
2022-09-25T19:12:37.203Z,10.00
2022-09-25T19:15:04.949Z,10.20
2022-09-25T19:17:32.978Z,9.90
2022-09-25T19:22:28.415Z,9.60
2022-09-25T19:27:25.605Z,9.90
2022-09-25T19:29:53.891Z,9.80
2022-09-25T19:32:21.762Z,9.80
2022-09-25T19:34:50.081Z,9.80
2022-09-25T19:40:04.548Z,9.80
2022-09-25T19:42:33.821Z,9.70
2022-09-25T19:47:29.332Z,9.70
2022-09-25T19:49:59.958Z,9.70
2022-09-25T19:52:27.530Z,9.70
2022-09-25T19:54:55.161Z,9.70
2022-09-25T19:57:22.805Z,9.60
2022-09-25T19:59:50.444Z,9.60
2022-09-25T20:02:18.226Z,9.60
2022-09-25T20:04:48.163Z,9.60
2022-09-25T20:07:16.710Z,9.50
2022-09-25T20:09:44.762Z,9.50
2022-09-25T20:12:12.346Z,9.50
2022-09-25T20:14:39.969Z,9.50
2022-09-25T20:17:10.159Z,9.40
2022-09-25T20:19:38.178Z,9.10
2022-09-25T20:22:08.748Z,9.50
2022-09-25T20:24:36.561Z,9.30
2022-09-25T20:29:32.985Z,9.30
2022-09-25T20:32:00.694Z,9.30
2022-09-25T20:34:28.493Z,9.30
2022-09-25T20:36:56.123Z,9.30
2022-09-25T20:39:24.194Z,9.70
2022-09-25T20:41:51.785Z,9.30
2022-09-25T20:44:19.541Z,9.30
2022-09-25T20:46:47.277Z,9.20
2022-09-25T20:49:17.373Z,9.30
2022-09-25T20:51:45.473Z,9.30
2022-09-25T20:54:13.180Z,9.20
2022-09-25T20:56:46.962Z,9.20
2022-09-25T20:59:16.163Z,9.20
2022-09-25T21:01:43.761Z,9.20
2022-09-25T21:04:11.954Z,9.20
2022-09-25T21:06:41.682Z,9.20
2022-09-25T21:09:16.036Z,9.20
2022-09-25T21:11:43.856Z,9.20
2022-09-25T21:14:16.634Z,9.20
2022-09-25T21:16:44.465Z,9.20
2022-09-25T21:19:13.418Z,9.20
2022-09-25T21:21:41.402Z,9.20
2022-09-25T21:24:11.843Z,9.10
2022-09-25T21:26:39.668Z,9.10
2022-09-25T21:29:09.841Z,9.20
2022-09-25T21:31:38.680Z,9.20
2022-09-25T21:34:10.432Z,9.10
2022-09-25T21:36:39.139Z,9.10
2022-09-25T21:39:07.280Z,9.10
2022-09-25T21:41:35.297Z,9.10
2022-09-25T21:44:10.404Z,9.10
2022-09-25T21:49:07.406Z,9.00
2022-09-25T21:51:42.759Z,9.20
2022-09-25T21:54:11.033Z,9.20
2022-09-25T21:56:39.107Z,9.10
2022-09-25T21:59:09.056Z,9.20
2022-09-25T22:01:38.821Z,9.10
2022-09-25T22:04:08.388Z,9.20
2022-09-25T22:06:38.862Z,9.20
2022-09-25T22:09:12.751Z,9.20
2022-09-25T22:11:41.198Z,9.20
2022-09-25T22:14:13.259Z,9.20
2022-09-25T22:16:44.734Z,9.40
2022-09-25T22:19:22.726Z,9.30
2022-09-25T22:21:51.885Z,9.20
2022-09-25T22:24:19.534Z,9.40
2022-09-25T22:26:48.405Z,9.30
2022-09-25T22:34:17.644Z,9.40
2022-09-25T22:36:45.953Z,9.40
2022-09-25T22:39:15.650Z,9.40
2022-09-25T22:44:11.122Z,9.30
2022-09-25T22:46:38.704Z,9.30
2022-09-25T22:49:06.732Z,9.40
2022-09-25T22:56:34.360Z,9.40
2022-09-25T22:59:11.523Z,9.40
2022-09-25T23:01:42.770Z,9.40
2022-09-25T23:04:16.548Z,9.40
2022-09-25T23:06:46.840Z,9.40
2022-09-25T23:09:21.686Z,9.40
2022-09-25T23:11:49.341Z,9.40
2022-09-25T23:14:20.358Z,9.40
2022-09-25T23:16:49.425Z,9.30
2022-09-25T23:19:17.180Z,9.30
2022-09-25T23:21:44.801Z,9.30
2022-09-25T23:24:14.521Z,9.30
2022-09-25T23:26:44.944Z,9.20
2022-09-25T23:29:14.941Z,9.20
2022-09-25T23:31:42.821Z,9.20
2022-09-25T23:34:11.200Z,9.10
2022-09-25T23:36:39.040Z,9.10
2022-09-25T23:39:08.767Z,9.10
2022-09-25T23:41:38.697Z,9.20
2022-09-25T23:44:09.589Z,9.10
2022-09-25T23:46:40.357Z,9.10
2022-09-25T23:49:09.308Z,9.20
2022-09-25T23:51:37.142Z,9.10
2022-09-25T23:54:07.692Z,9.10
2022-09-25T23:56:36.387Z,9.10
2022-09-25T23:59:05.228Z,9.00
